createdAt,value
2019-04-23T00:01:22.081Z,100017.76
2019-04-23T00:03:35.691Z,100013.45
2019-04-23T00:06:15.566Z,100004.09
2019-04-23T00:09:04.125Z,100004.73
2019-04-23T00:11:13.010Z,100000.76
2019-04-23T00:13:50.325Z,99996.55
2019-04-23T00:16:21.994Z,99994.92
2019-04-23T00:18:46.748Z,99987.75
2019-04-23T00:21:42.462Z,99972.92
2019-04-23T00:24:46.359Z,99977.08
2019-04-23T00:27:17.083Z,99971.23
2019-04-23T00:29:38.573Z,99965.09
2019-04-23T00:32:10.472Z,99962.85
2019-04-23T00:34:41.435Z,99964.80
2019-04-23T00:37:12.957Z,99954.07
2019-04-23T00:39:42.435Z,99957.11
2019-04-23T00:42:06.910Z,99954.36
2019-04-23T00:44:40.382Z,99954.77
2019-04-23T00:47:11.959Z,99948.00
2019-04-23T00:49:46.311Z,99959.05
2019-04-23T00:52:14.503Z,99956.47
2019-04-23T00:54:41.108Z,99964.02
2019-04-23T00:57:21.804Z,99956.31
2019-04-23T00:59:50.530Z,99958.02
2019-04-23T01:02:16.617Z,99954.93
2019-04-23T01:04:48.021Z,99955.44
2019-04-23T01:07:18.730Z,99953.23
2019-04-23T01:09:52.435Z,99951.04
2019-04-23T01:12:23.721Z,99952.59
2019-04-23T01:14:56.359Z,99947.21
2019-04-23T01:17:35.140Z,99931.34
2019-04-23T01:20:08.454Z,99946.28
2019-04-23T01:22:23.185Z,99928.91
2019-04-23T01:25:24.708Z,99930.75
2019-04-23T01:28:22.828Z,99936.27
2019-04-23T01:30:57.012Z,99931.34
2019-04-23T01:38:31.071Z,99925.07
2019-04-23T01:40:55.474Z,99922.95
2019-04-23T01:43:30.810Z,99921.27
2019-04-23T01:45:54.663Z,99918.45
2019-04-23T01:48:36.311Z,99914.97
2019-04-23T01:50:56.024Z,99917.87
2019-04-23T01:53:37.361Z,99916.30
2019-04-23T01:56:19.749Z,99912.25
2019-04-23T02:01:09.464Z,99909.77
2019-04-23T02:03:56.091Z,99913.12
2019-04-23T02:06:07.121Z,99910.88
2019-04-23T02:08:40.195Z,99906.45
2019-04-23T02:11:09.835Z,99902.41
2019-04-23T02:13:42.032Z,99902.41
2019-04-23T02:16:10.474Z,99896.98
2019-04-23T02:18:49.332Z,99898.92
2019-04-23T02:21:14.893Z,99887.72
2019-04-23T02:24:08.660Z,99889.80
2019-04-23T02:26:36.917Z,99893.85
2019-04-23T02:29:03.352Z,99888.70
2019-04-23T02:36:40.473Z,99877.81
2019-04-23T02:39:01.037Z,99876.27
2019-04-23T02:41:41.487Z,99876.14
2019-04-23T02:44:19.839Z,99876.70
2019-04-23T02:46:43.845Z,99878.08
2019-04-23T02:49:35.893Z,99870.58
2019-04-23T02:51:48.876Z,99876.08
2019-04-23T02:54:36.721Z,99879.29
2019-04-23T02:59:25.518Z,99869.59
2019-04-23T03:01:39.349Z,99868.20
2019-04-23T03:04:33.928Z,99863.86
2019-04-23T03:06:46.293Z,99865.11
2019-04-23T03:09:23.673Z,99865.79
2019-04-23T03:11:58.420Z,99858.97
2019-04-23T03:19:49.783Z,99840.88
2019-04-23T03:22:28.749Z,99842.20
2019-04-23T03:25:10.925Z,99830.06
2019-04-23T03:27:37.472Z,99833.02
2019-04-23T03:33:39.168Z,99828.83
2019-04-23T03:36:10.715Z,99830.67
2019-04-23T03:43:01.178Z,99826.63
2019-04-23T03:47:52.086Z,99821.06
2019-04-23T03:50:23.435Z,99818.33
2019-04-23T03:55:27.892Z,99822.16
2019-04-23T04:05:32.889Z,99803.89
2019-04-23T04:10:28.902Z,99801.84
2019-04-23T04:13:00.109Z,99803.30
2019-04-23T04:18:17.942Z,99804.00
2019-04-23T04:20:39.892Z,99801.58
2019-04-23T04:23:19.216Z,99804.05
2019-04-23T04:38:40.189Z,99793.30
2019-04-23T04:48:35.553Z,99792.38
2019-04-23T04:56:07.723Z,99789.09
2019-04-23T04:58:32.522Z,99791.14
2019-04-23T05:01:16.590Z,99789.84
2019-04-23T05:08:38.283Z,99787.87
2019-04-23T05:11:21.520Z,99786.68
2019-04-23T05:13:43.565Z,99783.67
2019-04-23T05:16:08.037Z,99789.33
2019-04-23T05:21:12.564Z,99780.36
2019-04-23T05:23:48.551Z,99776.91
2019-04-23T05:26:20.909Z,99781.77
2019-04-23T05:33:52.182Z,99782.70
2019-04-23T05:36:28.554Z,99784.05
2019-04-23T05:43:58.068Z,99781.36
2019-04-23T05:46:32.802Z,99779.59
2019-04-23T05:49:00.049Z,99784.70
2019-04-23T05:53:58.425Z,99766.95
2019-04-23T05:56:27.743Z,99769.80
2019-04-23T06:04:17.580Z,99773.17
2019-04-23T06:09:13.943Z,99766.34
2019-04-23T06:11:51.200Z,99758.10
2019-04-23T06:19:16.912Z,99754.36
2019-04-23T06:22:00.306Z,99746.45
2019-04-23T06:24:29.126Z,99754.87
2019-04-23T06:26:54.365Z,99740.02
2019-04-23T06:29:26.017Z,99736.98
2019-04-23T06:31:55.302Z,99746.10
2019-04-23T06:34:24.784Z,99740.90
2019-04-23T06:36:51.193Z,99741.42
2019-04-23T06:39:33.149Z,99736.98
2019-04-23T06:41:54.807Z,99737.11
2019-04-23T06:44:31.898Z,99732.36
2019-04-23T06:47:03.573Z,99723.78
2019-04-23T06:49:37.002Z,99732.47
2019-04-23T06:54:42.878Z,99717.64
2019-04-23T06:57:14.608Z,99712.65
2019-04-23T06:59:39.066Z,99712.52
2019-04-23T07:04:43.549Z,99716.55
2019-04-23T07:07:31.390Z,99706.13
2019-04-23T07:09:38.939Z,99702.58
2019-04-23T07:12:10.431Z,99703.15
2019-04-23T07:14:51.542Z,99695.87
2019-04-23T07:17:24.910Z,99701.91
2019-04-23T07:22:16.001Z,99695.73
2019-04-23T07:24:51.060Z,99682.66
2019-04-23T07:27:22.661Z,99677.95
2019-04-23T07:29:56.560Z,99693.78
2019-04-23T07:32:23.641Z,99675.86
2019-04-23T07:35:04.515Z,99678.63
2019-04-23T07:37:27.227Z,99675.81
2019-04-23T07:42:59.990Z,99674.74
2019-04-23T07:45:47.180Z,99671.09
2019-04-23T07:48:22.392Z,99666.53
2019-04-23T07:50:53.519Z,99663.93
2019-04-23T07:53:48.336Z,99662.59
2019-04-23T07:56:05.447Z,99655.47
2019-04-23T08:00:57.041Z,99647.14
2019-04-23T08:03:31.301Z,99638.56
2019-04-23T08:06:00.987Z,99646.95
2019-04-23T08:08:30.221Z,99637.09
2019-04-23T08:11:30.478Z,99629.81
2019-04-23T08:18:45.337Z,99628.77
2019-04-23T08:23:57.226Z,99623.25
2019-04-23T08:26:38.055Z,99619.97
2019-04-23T08:29:10.155Z,99617.67
2019-04-23T08:31:43.627Z,99613.93
2019-04-23T08:34:17.140Z,99602.80
2019-04-23T08:36:44.445Z,99590.19
2019-04-23T08:39:14.110Z,99576.02
2019-04-23T08:42:01.341Z,99571.30
2019-04-23T08:44:23.242Z,99574.95
2019-04-23T08:49:29.634Z,99575.86
2019-04-23T08:54:42.869Z,99564.11
2019-04-23T08:57:04.094Z,99555.98
2019-04-23T08:59:38.749Z,99567.33
2019-04-23T09:04:45.519Z,99550.09
2019-04-23T09:07:11.344Z,99562.94
2019-04-23T09:12:10.371Z,99564.72
2019-04-23T09:14:42.180Z,99568.16
2019-04-23T09:17:11.393Z,99561.35
2019-04-23T09:19:55.872Z,99562.92
2019-04-23T09:22:14.622Z,99553.20
2019-04-23T09:24:43.140Z,99545.66
2019-04-23T09:27:18.045Z,99532.77
2019-04-23T09:30:00.980Z,99526.19
2019-04-23T09:32:36.407Z,99527.95
2019-04-23T09:35:30.830Z,99529.67
2019-04-23T09:38:07.263Z,99524.96
2019-04-23T09:43:46.014Z,99519.44
2019-04-23T09:51:30.226Z,99489.34
2019-04-23T09:54:04.368Z,99492.47
2019-04-23T09:56:36.222Z,99487.84
2019-04-23T09:59:09.184Z,99485.34
2019-04-23T10:01:36.347Z,99477.39
2019-04-23T10:03:50.837Z,99475.77
2019-04-23T10:06:16.185Z,99474.95
2019-04-23T10:08:44.935Z,99457.14
2019-04-23T10:11:11.829Z,99457.91
2019-04-23T10:13:42.910Z,99451.04
2019-04-23T10:16:15.387Z,99431.56
2019-04-23T10:18:42.466Z,99431.03
2019-04-23T10:21:11.309Z,99429.25
2019-04-23T10:23:43.276Z,99432.22
2019-04-23T10:26:12.240Z,99432.09
2019-04-23T10:28:47.684Z,99424.78
2019-04-23T10:31:18.692Z,99435.05
2019-04-23T10:33:48.177Z,99433.42
2019-04-23T10:36:21.489Z,99439.78
2019-04-23T10:38:54.864Z,99446.70
2019-04-23T10:41:18.488Z,99448.30
2019-04-23T10:43:58.713Z,99451.26
2019-04-23T10:47:03.761Z,99449.63
2019-04-23T10:54:57.643Z,99431.00
2019-04-23T10:57:16.697Z,99437.22
2019-04-23T11:02:40.273Z,99426.06
2019-04-23T11:05:00.446Z,99438.17
2019-04-23T11:07:31.051Z,99440.97
2019-04-23T11:12:44.554Z,99434.92
2019-04-23T11:15:44.147Z,99428.39
2019-04-23T11:17:47.569Z,99434.58
2019-04-23T11:20:30.332Z,99423.81
2019-04-23T11:22:51.772Z,99427.88
2019-04-23T11:25:32.956Z,99424.84
2019-04-23T11:28:02.959Z,99422.42
2019-04-23T11:30:33.289Z,99419.09
2019-04-23T11:35:45.944Z,99417.61
2019-04-23T11:38:28.040Z,99419.04
2019-04-23T11:45:41.729Z,99409.20
2019-04-23T11:51:05.130Z,99403.42
2019-04-23T11:55:44.844Z,99404.70
2019-04-23T12:01:02.236Z,99378.71
2019-04-23T12:03:17.687Z,99385.78
2019-04-23T12:06:16.933Z,99393.31
2019-04-23T12:09:09.915Z,99383.29
2019-04-23T12:22:17.968Z,99382.70
2019-04-23T12:25:07.726Z,99378.95
2019-04-23T12:27:17.209Z,99381.15
2019-04-23T12:29:52.280Z,99370.26
2019-04-23T12:32:43.225Z,99355.26
2019-04-23T12:34:59.406Z,99365.76
2019-04-23T12:42:58.714Z,99345.84
2019-04-23T12:45:34.005Z,99347.32
2019-04-23T13:00:29.596Z,99341.03
2019-04-23T13:02:48.654Z,99335.09
2019-04-23T13:07:54.041Z,99327.49
2019-04-23T13:13:09.452Z,99318.22
2019-04-23T13:17:55.539Z,99325.31
2019-04-23T13:20:27.317Z,99317.01
2019-04-23T13:23:05.217Z,99308.28
2019-04-23T13:25:55.515Z,99311.56
2019-04-23T13:28:21.712Z,99301.67
2019-04-23T13:33:31.890Z,99295.17
2019-04-23T13:46:10.011Z,99273.67
2019-04-23T13:51:00.218Z,99271.13
2019-04-23T13:55:56.718Z,99267.92
2019-04-23T13:58:26.527Z,99252.47
2019-04-23T14:03:38.141Z,99248.79
2019-04-23T14:06:16.561Z,99247.32
2019-04-23T14:08:53.804Z,99249.22
2019-04-23T14:11:21.278Z,99254.16
2019-04-23T14:13:49.695Z,99259.36
2019-04-23T14:16:21.225Z,99257.89
2019-04-23T14:21:20.295Z,99248.61
2019-04-23T14:24:08.256Z,99240.08
2019-04-23T14:28:46.440Z,99234.21
2019-04-23T14:31:37.324Z,99233.55
2019-04-23T14:39:07.847Z,99237.08
2019-04-23T14:41:35.924Z,99236.56
2019-04-23T14:49:26.099Z,99226.78
2019-04-23T14:51:46.403Z,99220.05
2019-04-23T14:54:17.329Z,99226.33
2019-04-23T14:56:44.933Z,99231.53
2019-04-23T14:59:19.880Z,99221.77
2019-04-23T15:04:13.249Z,99221.58
2019-04-23T15:06:51.612Z,99216.03
2019-04-23T15:09:22.860Z,99216.19
2019-04-23T15:11:57.076Z,99203.91
2019-04-23T15:14:19.438Z,99211.81
2019-04-23T15:16:56.391Z,99213.97
2019-04-23T15:19:45.362Z,99209.02
2019-04-23T15:22:04.802Z,99214.20
2019-04-23T15:24:30.498Z,99206.55
2019-04-23T15:28:01.970Z,99204.23
2019-04-23T15:29:20.118Z,99212.84
2019-04-23T15:32:14.869Z,99211.16
2019-04-23T15:34:32.737Z,99213.19
2019-04-23T15:44:41.795Z,99204.77
2019-04-23T15:47:19.251Z,99201.55
2019-04-23T15:49:45.475Z,99199.55
2019-04-23T15:52:10.634Z,99200.55
2019-04-23T15:54:51.480Z,99200.37
2019-04-23T15:57:28.382Z,99203.89
2019-04-23T15:59:48.179Z,99199.81
2019-04-23T16:01:54.078Z,99199.17
2019-04-23T16:04:24.111Z,99191.25
2019-04-23T16:06:54.008Z,99188.72
2019-04-23T16:09:59.773Z,99199.38
2019-04-23T16:12:24.615Z,99196.81
2019-04-23T16:15:05.831Z,99194.62
2019-04-23T16:17:37.198Z,99197.16
2019-04-23T16:25:13.362Z,99189.44
2019-04-23T16:27:52.568Z,99190.61
2019-04-23T16:33:02.508Z,99185.05
2019-04-23T16:38:18.008Z,99189.95
2019-04-23T16:43:13.185Z,99184.22
2019-04-23T16:45:49.411Z,99183.39
2019-04-23T16:48:26.304Z,99187.41
2019-04-23T16:51:03.976Z,99181.67
2019-04-23T16:53:25.177Z,99183.02
2019-04-23T16:55:50.023Z,99177.77
2019-04-23T16:59:13.528Z,99173.89
2019-04-23T17:11:09.730Z,99185.53
2019-04-23T17:13:34.495Z,99189.22
2019-04-23T17:18:41.721Z,99182.78
2019-04-23T17:21:04.706Z,99184.80
2019-04-23T17:26:13.491Z,99188.24
2019-04-23T17:28:39.486Z,99194.22
2019-04-23T17:33:48.154Z,99190.12
2019-04-23T17:36:36.316Z,99181.59
2019-04-23T17:39:14.552Z,99188.72
2019-04-23T17:44:38.759Z,99195.68
2019-04-23T17:47:13.777Z,99192.48
2019-04-23T17:49:52.364Z,99195.07
2019-04-23T17:52:22.329Z,99199.92
2019-04-23T17:54:50.115Z,99197.88
2019-04-23T17:57:26.383Z,99198.61
2019-04-23T18:00:08.155Z,99208.71
2019-04-23T18:07:38.039Z,99207.77
2019-04-23T18:10:15.013Z,99202.41
2019-04-23T18:15:00.773Z,99202.35
2019-04-23T18:20:16.281Z,99206.44
2019-04-23T18:22:54.013Z,99204.47
2019-04-23T18:31:07.780Z,99207.47
2019-04-23T18:34:05.400Z,99201.16
2019-04-23T18:36:08.073Z,99205.11
2019-04-23T18:38:50.073Z,99200.42
2019-04-23T18:41:27.305Z,99198.38
2019-04-23T18:44:05.855Z,99213.03
2019-04-23T18:48:50.115Z,99212.98
2019-04-23T18:51:21.422Z,99213.53
2019-04-23T18:53:52.986Z,99217.54
2019-04-23T18:56:23.426Z,99215.63
2019-04-23T18:59:03.952Z,99220.91
2019-04-23T19:01:34.145Z,99226.46
2019-04-23T19:04:29.272Z,99229.81
2019-04-23T19:06:48.566Z,99243.62
2019-04-23T19:10:09.682Z,99235.89
2019-04-23T19:12:35.052Z,99240.87
2019-04-23T19:15:09.441Z,99241.73
2019-04-23T19:17:46.391Z,99235.13
2019-04-23T19:22:46.965Z,99246.02
2019-04-23T19:25:09.672Z,99241.38
2019-04-23T19:27:40.482Z,99241.09
2019-04-23T19:30:44.687Z,99242.20
2019-04-23T19:33:18.290Z,99243.52
2019-04-23T19:36:01.395Z,99247.93
2019-04-23T19:38:17.722Z,99247.34
2019-04-23T19:40:46.731Z,99240.53
2019-04-23T19:43:15.020Z,99245.81
2019-04-23T19:46:02.124Z,99245.37
2019-04-23T19:48:25.636Z,99247.30
2019-04-23T19:50:57.291Z,99249.24
2019-04-23T19:53:36.301Z,99245.38
2019-04-23T19:58:38.489Z,99244.28
2019-04-23T20:06:51.094Z,99234.56
2019-04-23T20:09:30.746Z,99236.45
2019-04-23T20:11:52.670Z,99238.34
2019-04-23T20:14:18.409Z,99234.61
2019-04-23T20:17:04.436Z,99243.30
2019-04-23T20:19:37.613Z,99240.68
2019-04-23T20:22:06.223Z,99243.48
2019-04-23T20:27:14.011Z,99245.74
2019-04-23T20:31:39.361Z,99245.28
2019-04-23T20:33:17.275Z,99240.81
2019-04-23T20:35:45.000Z,99242.41
2019-04-23T20:38:17.360Z,99242.20
2019-04-23T20:40:31.140Z,99234.98
2019-04-23T20:42:52.631Z,99240.95
2019-04-23T20:45:28.521Z,99239.98
2019-04-23T20:47:56.261Z,99241.86
2019-04-23T20:50:26.223Z,99232.93
2019-04-23T20:52:59.927Z,99231.86
2019-04-23T20:55:49.449Z,99233.93
2019-04-23T20:58:14.262Z,99236.09
2019-04-23T21:01:21.877Z,99239.27
2019-04-23T21:03:55.193Z,99234.86
2019-04-23T21:06:33.865Z,99237.26
2019-04-23T21:11:24.947Z,99229.45
2019-04-23T21:16:31.356Z,99223.53
2019-04-23T21:19:02.532Z,99231.39
2019-04-23T21:21:42.980Z,99228.09
2019-04-23T21:24:01.664Z,99229.32
2019-04-23T21:26:42.305Z,99232.55
2019-04-23T21:29:16.958Z,99241.23
2019-04-23T21:31:48.589Z,99236.59
2019-04-23T21:34:21.598Z,99234.95
2019-04-23T21:36:48.184Z,99230.43
2019-04-23T21:39:59.654Z,99227.89
2019-04-23T21:42:22.618Z,99230.01
2019-04-23T21:44:52.652Z,99236.86
2019-04-23T21:47:28.198Z,99225.59
2019-04-23T21:50:05.891Z,99220.66
2019-04-23T21:52:25.227Z,99229.75
2019-04-23T21:55:02.396Z,99229.10
2019-04-23T21:59:59.196Z,99242.27
2019-04-23T22:02:36.185Z,99229.58
2019-04-23T22:05:16.090Z,99228.06
2019-04-23T22:07:51.672Z,99229.17
2019-04-23T22:13:00.026Z,99213.94
2019-04-23T22:15:13.016Z,99217.96
2019-04-23T22:17:44.836Z,99218.55
2019-04-23T22:25:22.071Z,99213.85
2019-04-23T22:28:12.859Z,99222.55
2019-04-23T22:30:36.581Z,99217.41
2019-04-23T22:33:09.505Z,99216.77
2019-04-23T22:38:13.278Z,99210.37
2019-04-23T22:40:47.185Z,99226.66
2019-04-23T22:43:14.559Z,99223.16
2019-04-23T22:45:53.228Z,99231.22
2019-04-23T22:48:13.757Z,99228.41
2019-04-23T22:50:59.226Z,99233.75
2019-04-23T22:58:23.416Z,99234.52
2019-04-23T23:01:19.681Z,99230.02
2019-04-23T23:03:51.628Z,99234.20
2019-04-23T23:06:20.251Z,99232.22
2019-04-23T23:09:02.636Z,99231.42
2019-04-23T23:11:17.362Z,99225.89
2019-04-23T23:14:04.600Z,99233.53
2019-04-23T23:16:23.312Z,99231.73
2019-04-23T23:18:59.754Z,99228.20
2019-04-23T23:21:22.637Z,99235.36
2019-04-23T23:23:59.398Z,99232.09
2019-04-23T23:26:35.560Z,99232.70
2019-04-23T23:29:06.370Z,99236.89
2019-04-23T23:31:30.201Z,99235.73
2019-04-23T23:34:09.839Z,99235.00
2019-04-23T23:36:41.721Z,99238.16
2019-04-23T23:39:18.096Z,99234.70
2019-04-23T23:41:46.905Z,99232.86
2019-04-23T23:44:27.668Z,99233.63
2019-04-23T23:51:44.806Z,99234.98
2019-04-23T23:56:58.316Z,99238.78
2019-04-23T23:59:51.574Z,99236.02
